sensor_id;sensor_type;location;lat;lon;timestamp;pressure;altitude;pressure_sealevel;temperature;humidity
38716;BME280;24833;49.324;8.694;2023-04-28T00:01:40;99589.72;;;14.07;49.15
38716;BME280;24833;49.324;8.694;2023-04-28T00:04:07;99584.81;;;14.04;49.53
38716;BME280;24833;49.324;8.694;2023-04-28T00:06:35;99594.13;;;14.02;49.96
38716;BME280;24833;49.324;8.694;2023-04-28T00:09:03;99579.72;;;13.96;50.18
38716;BME280;24833;49.324;8.694;2023-04-28T00:11:30;99575.63;;;13.94;50.02
38716;BME280;24833;49.324;8.694;2023-04-28T00:13:56;99573.75;;;13.94;49.64
38716;BME280;24833;49.324;8.694;2023-04-28T00:16:23;99568.63;;;13.93;49.93
38716;BME280;24833;49.324;8.694;2023-04-28T00:18:50;99567.56;;;13.94;50.29
38716;BME280;24833;49.324;8.694;2023-04-28T00:21:17;99565.47;;;13.96;50.48
38716;BME280;24833;49.324;8.694;2023-04-28T00:23:44;99565.94;;;13.93;51.71
38716;BME280;24833;49.324;8.694;2023-04-28T00:26:11;99561.00;;;13.89;51.74
38716;BME280;24833;49.324;8.694;2023-04-28T00:28:41;99552.34;;;13.87;51.64
38716;BME280;24833;49.324;8.694;2023-04-28T00:31:13;99550.94;;;13.85;53.07
38716;BME280;24833;49.324;8.694;2023-04-28T00:33:42;99556.59;;;13.77;53.12
38716;BME280;24833;49.324;8.694;2023-04-28T00:36:10;99561.47;;;13.61;54.32
38716;BME280;24833;49.324;8.694;2023-04-28T00:38:37;99555.00;;;13.51;54.50
38716;BME280;24833;49.324;8.694;2023-04-28T00:41:04;99552.19;;;13.39;55.53
38716;BME280;24833;49.324;8.694;2023-04-28T00:43:31;99543.16;;;13.33;54.82
38716;BME280;24833;49.324;8.694;2023-04-28T00:46:10;99539.50;;;13.28;54.61
38716;BME280;24833;49.324;8.694;2023-04-28T00:48:37;99533.75;;;13.24;55.13
38716;BME280;24833;49.324;8.694;2023-04-28T00:51:04;99525.09;;;13.22;54.78
38716;BME280;24833;49.324;8.694;2023-04-28T00:53:32;99530.47;;;13.22;54.87
38716;BME280;24833;49.324;8.694;2023-04-28T00:55:59;99528.81;;;13.21;55.41
38716;BME280;24833;49.324;8.694;2023-04-28T00:58:27;99529.25;;;13.18;54.73
38716;BME280;24833;49.324;8.694;2023-04-28T01:01:07;99531.09;;;13.18;54.59
38716;BME280;24833;49.324;8.694;2023-04-28T01:03:38;99519.75;;;13.16;56.08
38716;BME280;24833;49.324;8.694;2023-04-28T01:06:08;99511.94;;;13.14;55.20
38716;BME280;24833;49.324;8.694;2023-04-28T01:08:37;99510.88;;;13.15;55.50
38716;BME280;24833;49.324;8.694;2023-04-28T01:11:09;99500.38;;;13.14;55.30
38716;BME280;24833;49.324;8.694;2023-04-28T01:13:54;99494.63;;;13.10;55.57
38716;BME280;24833;49.324;8.694;2023-04-28T01:16:23;99496.72;;;13.08;55.49
38716;BME280;24833;49.324;8.694;2023-04-28T01:18:52;99500.22;;;13.08;55.21
38716;BME280;24833;49.324;8.694;2023-04-28T01:21:27;99495.91;;;13.07;55.04
38716;BME280;24833;49.324;8.694;2023-04-28T01:24:05;99482.50;;;13.07;55.57
38716;BME280;24833;49.324;8.694;2023-04-28T01:26:32;99484.94;;;13.09;55.22
38716;BME280;24833;49.324;8.694;2023-04-28T01:29:00;99482.28;;;13.09;55.77
38716;BME280;24833;49.324;8.694;2023-04-28T01:31:27;99474.44;;;13.07;55.58
38716;BME280;24833;49.324;8.694;2023-04-28T01:33:57;99468.72;;;13.04;55.40
38716;BME280;24833;49.324;8.694;2023-04-28T01:36:24;99461.69;;;13.03;55.11
38716;BME280;24833;49.324;8.694;2023-04-28T01:38:53;99471.59;;;13.02;55.70
38716;BME280;24833;49.324;8.694;2023-04-28T01:41:20;99479.88;;;13.01;55.58
38716;BME280;24833;49.324;8.694;2023-04-28T01:43:48;99481.97;;;12.99;55.93
38716;BME280;24833;49.324;8.694;2023-04-28T01:46:15;99494.72;;;12.97;55.89
38716;BME280;24833;49.324;8.694;2023-04-28T01:48:42;99491.47;;;12.95;56.91
38716;BME280;24833;49.324;8.694;2023-04-28T01:51:09;99487.59;;;12.91;57.25
38716;BME280;24833;49.324;8.694;2023-04-28T01:53:37;99483.91;;;12.85;57.32
38716;BME280;24833;49.324;8.694;2023-04-28T01:56:04;99480.84;;;12.81;57.54
38716;BME280;24833;49.324;8.694;2023-04-28T01:58:33;99475.94;;;12.78;58.59
38716;BME280;24833;49.324;8.694;2023-04-28T02:01:00;99473.44;;;12.77;58.39
38716;BME280;24833;49.324;8.694;2023-04-28T02:03:27;99471.59;;;12.77;59.21
38716;BME280;24833;49.324;8.694;2023-04-28T02:05:55;99478.44;;;12.73;59.53
38716;BME280;24833;49.324;8.694;2023-04-28T02:08:22;99490.44;;;12.64;60.99
38716;BME280;24833;49.324;8.694;2023-04-28T02:10:51;99491.69;;;12.62;61.48
38716;BME280;24833;49.324;8.694;2023-04-28T02:13:17;99482.66;;;12.56;61.46
38716;BME280;24833;49.324;8.694;2023-04-28T02:15:44;99484.28;;;12.57;61.07
38716;BME280;24833;49.324;8.694;2023-04-28T02:18:12;99477.75;;;12.53;61.26
38716;BME280;24833;49.324;8.694;2023-04-28T02:20:39;99478.38;;;12.48;61.76
38716;BME280;24833;49.324;8.694;2023-04-28T02:23:07;99479.63;;;12.46;61.58
38716;BME280;24833;49.324;8.694;2023-04-28T02:25:34;99480.69;;;12.45;63.05
38716;BME280;24833;49.324;8.694;2023-04-28T02:28:02;99488.50;;;12.46;63.24
38716;BME280;24833;49.324;8.694;2023-04-28T02:30:32;99477.00;;;12.39;64.11
38716;BME280;24833;49.324;8.694;2023-04-28T02:32:59;99465.88;;;12.36;64.04
38716;BME280;24833;49.324;8.694;2023-04-28T02:35:27;99471.06;;;12.31;62.30
38716;BME280;24833;49.324;8.694;2023-04-28T02:37:54;99483.25;;;12.26;64.42
38716;BME280;24833;49.324;8.694;2023-04-28T02:40:21;99472.94;;;12.23;63.30
38716;BME280;24833;49.324;8.694;2023-04-28T02:42:48;99476.28;;;12.19;64.02
38716;BME280;24833;49.324;8.694;2023-04-28T02:45:15;99460.63;;;12.16;63.19
38716;BME280;24833;49.324;8.694;2023-04-28T02:47:42;99463.16;;;12.11;64.35
38716;BME280;24833;49.324;8.694;2023-04-28T02:50:09;99465.00;;;12.04;65.83
38716;BME280;24833;49.324;8.694;2023-04-28T02:52:37;99465.06;;;11.97;65.76
38716;BME280;24833;49.324;8.694;2023-04-28T02:55:04;99468.16;;;11.94;65.58
38716;BME280;24833;49.324;8.694;2023-04-28T02:57:32;99459.91;;;11.89;66.87
38716;BME280;24833;49.324;8.694;2023-04-28T02:59:59;99448.84;;;11.85;66.54
38716;BME280;24833;49.324;8.694;2023-04-28T03:02:30;99437.31;;;11.85;66.33
38716;BME280;24833;49.324;8.694;2023-04-28T03:04:57;99438.13;;;11.85;65.30
38716;BME280;24833;49.324;8.694;2023-04-28T03:07:24;99437.31;;;11.85;65.15
38716;BME280;24833;49.324;8.694;2023-04-28T03:09:52;99443.72;;;11.84;65.53
38716;BME280;24833;49.324;8.694;2023-04-28T03:12:19;99443.06;;;11.82;67.73
38716;BME280;24833;49.324;8.694;2023-04-28T03:14:46;99432.56;;;11.80;66.47
38716;BME280;24833;49.324;8.694;2023-04-28T03:17:13;99434.00;;;11.83;66.78
38716;BME280;24833;49.324;8.694;2023-04-28T03:19:40;99420.22;;;11.86;66.10
38716;BME280;24833;49.324;8.694;2023-04-28T03:22:07;99422.09;;;11.85;67.10
38716;BME280;24833;49.324;8.694;2023-04-28T03:24:34;99422.09;;;11.85;66.49
38716;BME280;24833;49.324;8.694;2023-04-28T03:27:01;99414.88;;;11.86;65.42
38716;BME280;24833;49.324;8.694;2023-04-28T03:29:29;99404.78;;;11.88;66.36
38716;BME280;24833;49.324;8.694;2023-04-28T03:31:56;99399.00;;;11.91;66.47
38716;BME280;24833;49.324;8.694;2023-04-28T03:34:23;99396.50;;;11.96;65.68
38716;BME280;24833;49.324;8.694;2023-04-28T03:36:50;99406.78;;;11.99;65.88
38716;BME280;24833;49.324;8.694;2023-04-28T03:39:24;99404.31;;;12.04;66.94
38716;BME280;24833;49.324;8.694;2023-04-28T03:41:51;99402.81;;;12.08;67.02
38716;BME280;24833;49.324;8.694;2023-04-28T03:44:37;99403.59;;;12.15;66.92
38716;BME280;24833;49.324;8.694;2023-04-28T03:47:05;99418.19;;;12.19;67.19
38716;BME280;24833;49.324;8.694;2023-04-28T03:49:32;99409.94;;;12.21;66.16
38716;BME280;24833;49.324;8.694;2023-04-28T03:51:59;99406.00;;;12.23;66.73
38716;BME280;24833;49.324;8.694;2023-04-28T03:54:28;99400.25;;;12.26;66.65
38716;BME280;24833;49.324;8.694;2023-04-28T03:56:56;99408.88;;;12.28;66.74
38716;BME280;24833;49.324;8.694;2023-04-28T03:59:23;99416.09;;;12.28;66.77
38716;BME280;24833;49.324;8.694;2023-04-28T04:01:50;99427.84;;;12.27;65.26
38716;BME280;24833;49.324;8.694;2023-04-28T04:04:18;99433.41;;;12.25;67.54
38716;BME280;24833;49.324;8.694;2023-04-28T04:06:45;99436.94;;;12.19;67.60
38716;BME280;24833;49.324;8.694;2023-04-28T04:09:13;99429.31;;;12.16;67.74
38716;BME280;24833;49.324;8.694;2023-04-28T04:11:40;99431.00;;;12.17;68.18
38716;BME280;24833;49.324;8.694;2023-04-28T04:14:07;99437.34;;;12.16;68.13
38716;BME280;24833;49.324;8.694;2023-04-28T04:16:35;99435.94;;;12.14;68.47
38716;BME280;24833;49.324;8.694;2023-04-28T04:19:02;99435.53;;;12.10;68.36
38716;BME280;24833;49.324;8.694;2023-04-28T04:21:36;99439.69;;;12.06;68.04
38716;BME280;24833;49.324;8.694;2023-04-28T04:24:03;99440.72;;;12.05;68.03
38716;BME280;24833;49.324;8.694;2023-04-28T04:26:30;99438.47;;;12.02;67.29
38716;BME280;24833;49.324;8.694;2023-04-28T04:28:57;99448.13;;;12.03;66.44
38716;BME280;24833;49.324;8.694;2023-04-28T04:31:24;99445.88;;;12.00;68.29
38716;BME280;24833;49.324;8.694;2023-04-28T04:33:51;99438.91;;;11.99;68.75
38716;BME280;24833;49.324;8.694;2023-04-28T04:36:20;99428.59;;;11.96;69.39
38716;BME280;24833;49.324;8.694;2023-04-28T04:38:48;99433.34;;;11.94;69.21
38716;BME280;24833;49.324;8.694;2023-04-28T04:41:17;99432.75;;;11.92;71.20
38716;BME280;24833;49.324;8.694;2023-04-28T04:43:53;99436.47;;;11.91;71.52
38716;BME280;24833;49.324;8.694;2023-04-28T04:46:26;99433.16;;;11.89;71.61
38716;BME280;24833;49.324;8.694;2023-04-28T04:48:53;99424.97;;;11.84;71.91
38716;BME280;24833;49.324;8.694;2023-04-28T04:51:20;99422.72;;;11.81;72.02
38716;BME280;24833;49.324;8.694;2023-04-28T04:53:47;99418.78;;;11.77;70.75
38716;BME280;24833;49.324;8.694;2023-04-28T04:56:14;99422.50;;;11.76;69.67
38716;BME280;24833;49.324;8.694;2023-04-28T04:58:43;99414.91;;;11.72;73.24
38716;BME280;24833;49.324;8.694;2023-04-28T05:01:24;99416.78;;;11.65;74.86
38716;BME280;24833;49.324;8.694;2023-04-28T05:03:51;99415.16;;;11.64;73.30
38716;BME280;24833;49.324;8.694;2023-04-28T05:06:19;99412.47;;;11.64;74.03
38716;BME280;24833;49.324;8.694;2023-04-28T05:08:47;99414.09;;;11.65;75.59
38716;BME280;24833;49.324;8.694;2023-04-28T05:11:15;99415.13;;;11.71;73.18
38716;BME280;24833;49.324;8.694;2023-04-28T05:13:43;99408.94;;;11.77;75.84
38716;BME280;24833;49.324;8.694;2023-04-28T05:16:11;99416.72;;;11.79;73.54
38716;BME280;24833;49.324;8.694;2023-04-28T05:18:38;99414.69;;;11.81;73.01
38716;BME280;24833;49.324;8.694;2023-04-28T05:21:05;99414.28;;;11.84;73.70
38716;BME280;24833;49.324;8.694;2023-04-28T05:23:32;99420.00;;;11.87;75.71
38716;BME280;24833;49.324;8.694;2023-04-28T05:26:00;99425.78;;;11.91;74.11
38716;BME280;24833;49.324;8.694;2023-04-28T05:28:27;99419.97;;;11.94;71.83
38716;BME280;24833;49.324;8.694;2023-04-28T05:30:54;99420.38;;;11.97;70.60
38716;BME280;24833;49.324;8.694;2023-04-28T05:33:22;99416.22;;;12.02;72.16
38716;BME280;24833;49.324;8.694;2023-04-28T05:35:49;99417.47;;;12.06;71.17
38716;BME280;24833;49.324;8.694;2023-04-28T05:38:17;99411.88;;;12.07;69.95
38716;BME280;24833;49.324;8.694;2023-04-28T05:40:48;99408.75;;;12.10;70.21
38716;BME280;24833;49.324;8.694;2023-04-28T05:43:16;99418.03;;;12.14;69.65
38716;BME280;24833;49.324;8.694;2023-04-28T05:45:43;99415.94;;;12.16;70.81
38716;BME280;24833;49.324;8.694;2023-04-28T05:48:11;99428.31;;;12.17;69.16
38716;BME280;24833;49.324;8.694;2023-04-28T05:50:39;99436.53;;;12.16;71.85
38716;BME280;24833;49.324;8.694;2023-04-28T05:53:06;99420.69;;;12.14;70.95
38716;BME280;24833;49.324;8.694;2023-04-28T05:55:34;99405.09;;;12.11;74.51
38716;BME280;24833;49.324;8.694;2023-04-28T05:58:03;99409.22;;;12.07;73.49
38716;BME280;24833;49.324;8.694;2023-04-28T06:00:30;99411.69;;;12.02;72.42
38716;BME280;24833;49.324;8.694;2023-04-28T06:02:59;99408.66;;;11.98;71.99
38716;BME280;24833;49.324;8.694;2023-04-28T06:05:26;99408.00;;;11.96;74.27
38716;BME280;24833;49.324;8.694;2023-04-28T06:07:54;99416.25;;;11.95;71.67
38716;BME280;24833;49.324;8.694;2023-04-28T06:10:25;99418.34;;;11.93;71.37
38716;BME280;24833;49.324;8.694;2023-04-28T06:12:52;99412.38;;;11.91;75.07
38716;BME280;24833;49.324;8.694;2023-04-28T06:15:19;99410.94;;;11.88;75.16
38716;BME280;24833;49.324;8.694;2023-04-28T06:17:47;99399.88;;;11.85;73.91
38716;BME280;24833;49.324;8.694;2023-04-28T06:20:15;99403.97;;;11.81;74.23
38716;BME280;24833;49.324;8.694;2023-04-28T06:22:43;99419.81;;;11.76;73.83
38716;BME280;24833;49.324;8.694;2023-04-28T06:25:11;99423.16;;;11.71;73.82
38716;BME280;24833;49.324;8.694;2023-04-28T06:27:43;99425.63;;;11.66;72.86
38716;BME280;24833;49.324;8.694;2023-04-28T06:30:21;99425.22;;;11.62;72.61
38716;BME280;24833;49.324;8.694;2023-04-28T06:32:48;99432.03;;;11.58;73.40
38716;BME280;24833;49.324;8.694;2023-04-28T06:35:16;99430.56;;;11.56;74.92
38716;BME280;24833;49.324;8.694;2023-04-28T06:37:43;99437.19;;;11.53;73.76
38716;BME280;24833;49.324;8.694;2023-04-28T06:40:10;99449.31;;;11.49;73.76
38716;BME280;24833;49.324;8.694;2023-04-28T06:42:41;99440.69;;;11.47;70.10
38716;BME280;24833;49.324;8.694;2023-04-28T06:45:11;99451.38;;;11.47;71.23
38716;BME280;24833;49.324;8.694;2023-04-28T06:47:38;99442.75;;;11.45;70.47
38716;BME280;24833;49.324;8.694;2023-04-28T06:50:08;99445.84;;;11.42;71.58
38716;BME280;24833;49.324;8.694;2023-04-28T06:52:36;99436.41;;;11.39;70.72
38716;BME280;24833;49.324;8.694;2023-04-28T06:55:09;99430.44;;;11.37;70.83
38716;BME280;24833;49.324;8.694;2023-04-28T06:57:36;99435.97;;;11.36;70.70
38716;BME280;24833;49.324;8.694;2023-04-28T07:00:04;99426.53;;;11.33;70.41
38716;BME280;24833;49.324;8.694;2023-04-28T07:02:32;99424.69;;;11.34;69.83
38716;BME280;24833;49.324;8.694;2023-04-28T07:04:59;99421.41;;;11.32;70.95
38716;BME280;24833;49.324;8.694;2023-04-28T07:07:26;99418.72;;;11.32;72.20
38716;BME280;24833;49.324;8.694;2023-04-28T07:09:53;99412.56;;;11.31;73.73
38716;BME280;24833;49.324;8.694;2023-04-28T07:12:21;99416.06;;;11.32;73.25
38716;BME280;24833;49.324;8.694;2023-04-28T07:14:48;99404.31;;;11.33;73.99
38716;BME280;24833;49.324;8.694;2023-04-28T07:17:19;99397.94;;;11.34;74.24
38716;BME280;24833;49.324;8.694;2023-04-28T07:19:46;99400.63;;;11.34;73.44
38716;BME280;24833;49.324;8.694;2023-04-28T07:22:13;99394.66;;;11.32;74.05
38716;BME280;24833;49.324;8.694;2023-04-28T07:24:45;99402.06;;;11.30;75.03
38716;BME280;24833;49.324;8.694;2023-04-28T07:27:16;99420.78;;;11.30;76.59
38716;BME280;24833;49.324;8.694;2023-04-28T07:29:43;99422.84;;;11.28;74.48
38716;BME280;24833;49.324;8.694;2023-04-28T07:32:10;99422.84;;;11.28;74.81
38716;BME280;24833;49.324;8.694;2023-04-28T07:34:37;99423.44;;;11.30;74.59
38716;BME280;24833;49.324;8.694;2023-04-28T07:37:04;99428.78;;;11.30;72.66
38716;BME280;24833;49.324;8.694;2023-04-28T07:39:33;99429.63;;;11.30;72.74
38716;BME280;24833;49.324;8.694;2023-04-28T07:42:01;99426.75;;;11.32;73.46
38716;BME280;24833;49.324;8.694;2023-04-28T07:44:29;99428.38;;;11.33;72.28
38716;BME280;24833;49.324;8.694;2023-04-28T07:46:59;99442.56;;;11.33;72.66
38716;BME280;24833;49.324;8.694;2023-04-28T07:49:27;99437.00;;;11.35;73.53
38716;BME280;24833;49.324;8.694;2023-04-28T07:51:54;99441.31;;;11.36;75.93
38716;BME280;24833;49.324;8.694;2023-04-28T07:54:22;99430.03;;;11.34;75.25
38716;BME280;24833;49.324;8.694;2023-04-28T07:56:49;99435.38;;;11.34;73.09
38716;BME280;24833;49.324;8.694;2023-04-28T07:59:17;99428.38;;;11.33;73.76
38716;BME280;24833;49.324;8.694;2023-04-28T08:01:44;99434.34;;;11.35;74.73
38716;BME280;24833;49.324;8.694;2023-04-28T08:04:11;99429.00;;;11.35;76.53
38716;BME280;24833;49.324;8.694;2023-04-28T08:06:39;99429.63;;;11.37;77.89
38716;BME280;24833;49.324;8.694;2023-04-28T08:09:06;99424.88;;;11.39;79.05
38716;BME280;24833;49.324;8.694;2023-04-28T08:11:33;99435.13;;;11.42;79.64
38716;BME280;24833;49.324;8.694;2023-04-28T08:14:00;99429.38;;;11.45;77.58
38716;BME280;24833;49.324;8.694;2023-04-28T08:16:30;99430.00;;;11.47;78.35
38716;BME280;24833;49.324;8.694;2023-04-28T08:18:57;99426.28;;;11.48;80.86
38716;BME280;24833;49.324;8.694;2023-04-28T08:21:25;99420.53;;;11.51;78.59
38716;BME280;24833;49.324;8.694;2023-04-28T08:23:53;99420.31;;;11.53;80.83
38716;BME280;24833;49.324;8.694;2023-04-28T08:26:20;99411.25;;;11.54;80.92
38716;BME280;24833;49.324;8.694;2023-04-28T08:28:47;99408.38;;;11.55;81.85
38716;BME280;24833;49.324;8.694;2023-04-28T08:31:14;99410.00;;;11.56;82.53
38716;BME280;24833;49.324;8.694;2023-04-28T08:33:41;99406.94;;;11.59;81.44
38716;BME280;24833;49.324;8.694;2023-04-28T08:36:10;99401.78;;;11.64;79.51
38716;BME280;24833;49.324;8.694;2023-04-28T08:38:44;99406.47;;;11.69;79.28
38716;BME280;24833;49.324;8.694;2023-04-28T08:41:15;99397.81;;;11.73;81.78
38716;BME280;24833;49.324;8.694;2023-04-28T08:43:42;99407.25;;;11.76;84.13
38716;BME280;24833;49.324;8.694;2023-04-28T08:46:10;99417.38;;;11.81;82.98
38716;BME280;24833;49.324;8.694;2023-04-28T08:48:42;99424.31;;;11.88;84.00
38716;BME280;24833;49.324;8.694;2023-04-28T08:51:17;99429.03;;;11.93;80.93
38716;BME280;24833;49.324;8.694;2023-04-28T08:53:49;99422.84;;;11.99;82.22
38716;BME280;24833;49.324;8.694;2023-04-28T08:56:24;99424.84;;;12.04;82.36
38716;BME280;24833;49.324;8.694;2023-04-28T08:58:53;99424.44;;;12.07;83.38
38716;BME280;24833;49.324;8.694;2023-04-28T09:01:20;99427.50;;;12.10;83.77
38716;BME280;24833;49.324;8.694;2023-04-28T09:03:47;99425.44;;;12.12;83.03
38716;BME280;24833;49.324;8.694;2023-04-28T09:06:15;99421.28;;;12.16;84.00
38716;BME280;24833;49.324;8.694;2023-04-28T09:08:42;99425.19;;;12.20;83.58
38716;BME280;24833;49.324;8.694;2023-04-28T09:11:10;99427.66;;;12.22;82.44
38716;BME280;24833;49.324;8.694;2023-04-28T09:13:39;99425.38;;;12.25;81.44
38716;BME280;24833;49.324;8.694;2023-04-28T09:16:07;99432.97;;;12.28;83.55
38716;BME280;24833;49.324;8.694;2023-04-28T09:18:34;99427.19;;;12.32;83.26
38716;BME280;24833;49.324;8.694;2023-04-28T09:21:09;99436.22;;;12.37;79.44
38716;BME280;24833;49.324;8.694;2023-04-28T09:23:47;99434.16;;;12.39;83.74
38716;BME280;24833;49.324;8.694;2023-04-28T09:26:17;99427.75;;;12.40;84.71
38716;BME280;24833;49.324;8.694;2023-04-28T09:28:44;99439.47;;;12.46;82.13
38716;BME280;24833;49.324;8.694;2023-04-28T09:31:22;99436.34;;;12.49;80.60
38716;BME280;24833;49.324;8.694;2023-04-28T09:33:58;99432.22;;;12.53;81.75
38716;BME280;24833;49.324;8.694;2023-04-28T09:36:30;99433.41;;;12.57;81.69
38716;BME280;24833;49.324;8.694;2023-04-28T09:38:57;99422.84;;;12.62;79.93
38716;BME280;24833;49.324;8.694;2023-04-28T09:44:17;99433.91;;;12.72;79.21
38716;BME280;24833;49.324;8.694;2023-04-28T09:46:50;99426.66;;;12.79;78.77
38716;BME280;24833;49.324;8.694;2023-04-28T09:49:17;99430.50;;;12.83;78.29
38716;BME280;24833;49.324;8.694;2023-04-28T09:51:44;99425.56;;;12.87;80.33
38716;BME280;24833;49.324;8.694;2023-04-28T09:54:11;99421.59;;;12.90;80.66
38716;BME280;24833;49.324;8.694;2023-04-28T09:56:40;99418.03;;;12.96;80.60
38716;BME280;24833;49.324;8.694;2023-04-28T09:59:09;99420.06;;;13.00;80.40
38716;BME280;24833;49.324;8.694;2023-04-28T10:01:39;99425.38;;;13.07;80.26
38716;BME280;24833;49.324;8.694;2023-04-28T10:04:07;99420.78;;;13.14;78.96
38716;BME280;24833;49.324;8.694;2023-04-28T10:06:35;99419.94;;;13.20;77.84
38716;BME280;24833;49.324;8.694;2023-04-28T10:09:03;99426.03;;;13.27;77.83
38716;BME280;24833;49.324;8.694;2023-04-28T10:11:32;99418.75;;;13.34;77.90
38716;BME280;24833;49.324;8.694;2023-04-28T10:13:59;99418.91;;;13.40;77.57
38716;BME280;24833;49.324;8.694;2023-04-28T10:16:30;99421.53;;;13.46;77.68
38716;BME280;24833;49.324;8.694;2023-04-28T10:18:58;99423.31;;;13.52;78.00
38716;BME280;24833;49.324;8.694;2023-04-28T10:21:28;99423.44;;;13.57;77.23
38716;BME280;24833;49.324;8.694;2023-04-28T10:24:08;99429.78;;;13.63;76.48
38716;BME280;24833;49.324;8.694;2023-04-28T10:27:06;99425.63;;;13.67;74.54
38716;BME280;24833;49.324;8.694;2023-04-28T10:29:35;99426.19;;;13.69;76.10
38716;BME280;24833;49.324;8.694;2023-04-28T10:32:24;99428.44;;;13.72;75.07
38716;BME280;24833;49.324;8.694;2023-04-28T10:38:14;99430.44;;;13.77;74.09
38716;BME280;24833;49.324;8.694;2023-04-28T10:40:48;99431.06;;;13.79;75.23
38716;BME280;24833;49.324;8.694;2023-04-28T10:58:50;99421.22;;;13.91;73.53
38716;BME280;24833;49.324;8.694;2023-04-28T11:06:34;99409.91;;;14.01;75.19
38716;BME280;24833;49.324;8.694;2023-04-28T11:16:53;99401.44;;;14.15;75.50
38716;BME280;24833;49.324;8.694;2023-04-28T11:19:23;99414.22;;;14.20;75.13
38716;BME280;24833;49.324;8.694;2023-04-28T11:21:52;99411.03;;;14.23;74.59
38716;BME280;24833;49.324;8.694;2023-04-28T11:24:24;99413.88;;;14.28;75.20
38716;BME280;24833;49.324;8.694;2023-04-28T11:26:53;99413.19;;;14.33;75.40
38716;BME280;24833;49.324;8.694;2023-04-28T11:29:38;99411.47;;;14.38;75.42
38716;BME280;24833;49.324;8.694;2023-04-28T11:32:08;99414.25;;;14.43;75.87
38716;BME280;24833;49.324;8.694;2023-04-28T11:34:36;99411.97;;;14.47;76.17
38716;BME280;24833;49.324;8.694;2023-04-28T11:37:03;99413.38;;;14.50;76.66
38716;BME280;24833;49.324;8.694;2023-04-28T11:39:34;99407.56;;;14.53;76.00
38716;BME280;24833;49.324;8.694;2023-04-28T11:42:09;99407.09;;;14.56;75.20
38716;BME280;24833;49.324;8.694;2023-04-28T11:44:36;99397.53;;;14.60;75.08
38716;BME280;24833;49.324;8.694;2023-04-28T11:47:05;99406.16;;;14.62;75.31
38716;BME280;24833;49.324;8.694;2023-04-28T11:49:44;99413.53;;;14.66;74.32
38716;BME280;24833;49.324;8.694;2023-04-28T11:52:12;99405.63;;;14.71;75.98
38716;BME280;24833;49.324;8.694;2023-04-28T11:54:39;99410.50;;;14.75;75.83
38716;BME280;24833;49.324;8.694;2023-04-28T11:57:20;99414.16;;;14.80;75.36
38716;BME280;24833;49.324;8.694;2023-04-28T11:59:47;99401.88;;;14.84;75.33
38716;BME280;24833;49.324;8.694;2023-04-28T12:02:27;99395.81;;;14.89;75.53
38716;BME280;24833;49.324;8.694;2023-04-28T12:05:05;99403.19;;;14.93;74.59
38716;BME280;24833;49.324;8.694;2023-04-28T12:07:43;99400.00;;;14.96;74.02
38716;BME280;24833;49.324;8.694;2023-04-28T12:10:14;99396.25;;;14.97;74.53
38716;BME280;24833;49.324;8.694;2023-04-28T12:12:44;99395.25;;;14.98;75.09
38716;BME280;24833;49.324;8.694;2023-04-28T12:15:20;99397.69;;;15.00;75.37
38716;BME280;24833;49.324;8.694;2023-04-28T12:17:48;99403.88;;;15.01;76.73
38716;BME280;24833;49.324;8.694;2023-04-28T12:20:36;99397.69;;;15.00;74.04
38716;BME280;24833;49.324;8.694;2023-04-28T12:23:04;99392.88;;;15.02;75.38
38716;BME280;24833;49.324;8.694;2023-04-28T12:25:45;99410.44;;;15.05;76.22
38716;BME280;24833;49.324;8.694;2023-04-28T12:28:13;99416.63;;;15.05;75.75
38716;BME280;24833;49.324;8.694;2023-04-28T12:30:41;99412.66;;;15.08;75.58
38716;BME280;24833;49.324;8.694;2023-04-28T12:33:27;99420.72;;;15.08;73.56
38716;BME280;24833;49.324;8.694;2023-04-28T12:35:57;99417.53;;;15.11;76.10
38716;BME280;24833;49.324;8.694;2023-04-28T12:38:25;99417.66;;;15.16;76.08
38716;BME280;24833;49.324;8.694;2023-04-28T12:40:53;99411.59;;;15.20;76.63
38716;BME280;24833;49.324;8.694;2023-04-28T12:43:21;99402.59;;;15.26;76.69
38716;BME280;24833;49.324;8.694;2023-04-28T12:45:50;99410.53;;;15.33;78.87
38716;BME280;24833;49.324;8.694;2023-04-28T12:48:19;99411.81;;;15.42;78.41
38716;BME280;24833;49.324;8.694;2023-04-28T12:50:46;99411.44;;;15.50;78.67
38716;BME280;24833;49.324;8.694;2023-04-28T12:53:13;99396.22;;;15.56;77.81
38716;BME280;24833;49.324;8.694;2023-04-28T12:55:40;99404.41;;;15.61;78.90
38716;BME280;24833;49.324;8.694;2023-04-28T12:58:07;99399.75;;;15.68;78.89
38716;BME280;24833;49.324;8.694;2023-04-28T13:00:34;99384.25;;;15.75;79.05
38716;BME280;24833;49.324;8.694;2023-04-28T13:03:01;99391.16;;;15.83;78.21
38716;BME280;24833;49.324;8.694;2023-04-28T13:05:30;99386.44;;;15.90;78.78
38716;BME280;24833;49.324;8.694;2023-04-28T13:07:57;99389.81;;;15.97;79.20
38716;BME280;24833;49.324;8.694;2023-04-28T13:10:25;99386.16;;;16.03;79.01
38716;BME280;24833;49.324;8.694;2023-04-28T13:12:52;99386.81;;;16.11;79.16
38716;BME280;24833;49.324;8.694;2023-04-28T13:15:19;99384.56;;;16.19;79.82
38716;BME280;24833;49.324;8.694;2023-04-28T13:17:47;99385.56;;;16.30;80.40
38716;BME280;24833;49.324;8.694;2023-04-28T13:20:15;99377.41;;;16.42;79.93
38716;BME280;24833;49.324;8.694;2023-04-28T13:22:41;99377.59;;;16.52;80.34
38716;BME280;24833;49.324;8.694;2023-04-28T13:25:09;99371.53;;;16.61;79.06
38716;BME280;24833;49.324;8.694;2023-04-28T13:27:36;99373.88;;;16.70;80.28
38716;BME280;24833;49.324;8.694;2023-04-28T13:30:05;99358.59;;;16.75;80.60
38716;BME280;24833;49.324;8.694;2023-04-28T13:32:32;99359.97;;;16.78;80.95
38716;BME280;24833;49.324;8.694;2023-04-28T13:34:59;99361.38;;;16.80;80.90
38716;BME280;24833;49.324;8.694;2023-04-28T13:37:27;99359.97;;;16.78;80.26
38716;BME280;24833;49.324;8.694;2023-04-28T13:39:53;99355.31;;;16.73;79.04
38716;BME280;24833;49.324;8.694;2023-04-28T13:42:20;99344.19;;;16.70;78.69
38716;BME280;24833;49.324;8.694;2023-04-28T13:44:47;99354.88;;;16.65;79.50